sensor_id;sensor_type;location;lat;lon;timestamp;P1;durP1;ratioP1;P2;durP2;ratioP2
30147;SDS011;16960;49.404;8.248;2024-03-25T00:01:06;1.33;;;0.93;;
30147;SDS011;16960;49.404;8.248;2024-03-25T00:03:33;1.83;;;1.10;;
30147;SDS011;16960;49.404;8.248;2024-03-25T00:05:59;1.10;;;1.00;;
30147;SDS011;16960;49.404;8.248;2024-03-25T00:08:27;2.17;;;0.87;;
30147;SDS011;16960;49.404;8.248;2024-03-25T00:10:53;2.20;;;1.20;;
30147;SDS011;16960;49.404;8.248;2024-03-25T00:13:20;2.97;;;1.37;;
30147;SDS011;16960;49.404;8.248;2024-03-25T00:15:46;1.17;;;1.07;;
30147;SDS011;16960;49.404;8.248;2024-03-25T00:18:13;1.23;;;0.93;;
30147;SDS011;16960;49.404;8.248;2024-03-25T00:20:39;1.20;;;1.10;;
30147;SDS011;16960;49.404;8.248;2024-03-25T00:23:06;1.00;;;0.90;;
30147;SDS011;16960;49.404;8.248;2024-03-25T00:25:33;1.30;;;0.97;;
30147;SDS011;16960;49.404;8.248;2024-03-25T00:28:00;1.57;;;0.93;;
30147;SDS011;16960;49.404;8.248;2024-03-25T00:30:26;1.40;;;0.87;;
30147;SDS011;16960;49.404;8.248;2024-03-25T00:32:54;1.13;;;1.00;;
30147;SDS011;16960;49.404;8.248;2024-03-25T00:35:19;1.93;;;1.30;;
30147;SDS011;16960;49.404;8.248;2024-03-25T00:37:47;1.77;;;1.00;;
30147;SDS011;16960;49.404;8.248;2024-03-25T00:40:13;2.03;;;1.10;;
30147;SDS011;16960;49.404;8.248;2024-03-25T00:42:41;1.10;;;1.00;;
30147;SDS011;16960;49.404;8.248;2024-03-25T00:45:07;1.23;;;0.90;;
30147;SDS011;16960;49.404;8.248;2024-03-25T00:47:34;1.63;;;1.47;;
30147;SDS011;16960;49.404;8.248;2024-03-25T00:50:00;2.27;;;1.40;;
30147;SDS011;16960;49.404;8.248;2024-03-25T00:52:27;2.07;;;1.13;;
30147;SDS011;16960;49.404;8.248;2024-03-25T00:54:53;1.40;;;1.03;;
30147;SDS011;16960;49.404;8.248;2024-03-25T00:57:20;1.43;;;1.10;;
30147;SDS011;16960;49.404;8.248;2024-03-25T00:59:47;1.07;;;0.90;;
30147;SDS011;16960;49.404;8.248;2024-03-25T01:02:14;1.43;;;0.90;;
30147;SDS011;16960;49.404;8.248;2024-03-25T01:04:40;1.77;;;1.17;;
30147;SDS011;16960;49.404;8.248;2024-03-25T01:07:08;1.40;;;1.30;;
30147;SDS011;16960;49.404;8.248;2024-03-25T01:09:34;2.33;;;1.10;;
30147;SDS011;16960;49.404;8.248;2024-03-25T01:12:01;4.23;;;1.30;;
30147;SDS011;16960;49.404;8.248;2024-03-25T01:14:27;1.27;;;1.00;;
30147;SDS011;16960;49.404;8.248;2024-03-25T01:16:55;3.50;;;1.20;;
30147;SDS011;16960;49.404;8.248;2024-03-25T01:19:21;0.97;;;0.97;;
30147;SDS011;16960;49.404;8.248;2024-03-25T01:21:48;1.50;;;1.00;;
30147;SDS011;16960;49.404;8.248;2024-03-25T01:24:15;1.10;;;1.00;;
30147;SDS011;16960;49.404;8.248;2024-03-25T01:26:42;1.20;;;1.10;;
30147;SDS011;16960;49.404;8.248;2024-03-25T01:29:08;1.97;;;0.83;;
30147;SDS011;16960;49.404;8.248;2024-03-25T01:31:34;0.80;;;0.80;;
30147;SDS011;16960;49.404;8.248;2024-03-25T01:34:02;1.30;;;1.20;;
30147;SDS011;16960;49.404;8.248;2024-03-25T01:36:29;1.20;;;1.00;;
30147;SDS011;16960;49.404;8.248;2024-03-25T01:38:55;0.87;;;0.83;;
30147;SDS011;16960;49.404;8.248;2024-03-25T01:41:22;1.60;;;1.07;;
30147;SDS011;16960;49.404;8.248;2024-03-25T01:43:48;1.40;;;1.27;;
30147;SDS011;16960;49.404;8.248;2024-03-25T01:46:15;1.03;;;0.93;;
30147;SDS011;16960;49.404;8.248;2024-03-25T01:48:42;1.23;;;0.97;;
30147;SDS011;16960;49.404;8.248;2024-03-25T01:51:10;1.77;;;0.90;;
30147;SDS011;16960;49.404;8.248;2024-03-25T01:53:38;1.00;;;0.83;;
30147;SDS011;16960;49.404;8.248;2024-03-25T01:56:06;1.03;;;0.93;;
30147;SDS011;16960;49.404;8.248;2024-03-25T01:58:32;1.03;;;0.97;;
30147;SDS011;16960;49.404;8.248;2024-03-25T02:01:00;1.33;;;1.23;;
30147;SDS011;16960;49.404;8.248;2024-03-25T02:03:26;1.20;;;1.00;;
30147;SDS011;16960;49.404;8.248;2024-03-25T02:05:55;1.83;;;1.10;;
30147;SDS011;16960;49.404;8.248;2024-03-25T02:08:25;1.30;;;0.90;;
30147;SDS011;16960;49.404;8.248;2024-03-25T02:10:52;1.87;;;1.30;;
30147;SDS011;16960;49.404;8.248;2024-03-25T02:13:19;2.80;;;1.30;;
30147;SDS011;16960;49.404;8.248;2024-03-25T02:15:47;1.77;;;1.13;;
30147;SDS011;16960;49.404;8.248;2024-03-25T02:18:16;1.50;;;1.30;;
30147;SDS011;16960;49.404;8.248;2024-03-25T02:20:43;1.10;;;1.00;;
30147;SDS011;16960;49.404;8.248;2024-03-25T02:23:10;1.37;;;1.27;;
30147;SDS011;16960;49.404;8.248;2024-03-25T02:25:39;1.57;;;1.40;;
30147;SDS011;16960;49.404;8.248;2024-03-25T02:28:08;3.43;;;1.30;;
30147;SDS011;16960;49.404;8.248;2024-03-25T02:30:35;1.20;;;1.10;;
30147;SDS011;16960;49.404;8.248;2024-03-25T02:33:02;1.67;;;1.20;;
30147;SDS011;16960;49.404;8.248;2024-03-25T02:35:29;1.60;;;1.20;;
30147;SDS011;16960;49.404;8.248;2024-03-25T02:37:55;2.27;;;1.10;;
30147;SDS011;16960;49.404;8.248;2024-03-25T02:40:22;1.43;;;1.20;;
30147;SDS011;16960;49.404;8.248;2024-03-25T02:42:49;1.67;;;1.10;;
30147;SDS011;16960;49.404;8.248;2024-03-25T02:45:17;1.30;;;1.20;;
30147;SDS011;16960;49.404;8.248;2024-03-25T02:47:43;1.60;;;1.50;;
30147;SDS011;16960;49.404;8.248;2024-03-25T02:50:11;1.03;;;0.93;;
30147;SDS011;16960;49.404;8.248;2024-03-25T02:52:37;1.53;;;1.03;;
30147;SDS011;16960;49.404;8.248;2024-03-25T02:55:05;1.50;;;1.00;;
30147;SDS011;16960;49.404;8.248;2024-03-25T02:57:31;1.43;;;1.30;;
30147;SDS011;16960;49.404;8.248;2024-03-25T02:59:58;1.07;;;0.97;;
30147;SDS011;16960;49.404;8.248;2024-03-25T03:02:25;1.70;;;1.20;;
30147;SDS011;16960;49.404;8.248;2024-03-25T03:04:52;1.40;;;1.23;;
30147;SDS011;16960;49.404;8.248;2024-03-25T03:07:18;2.27;;;1.13;;
30147;SDS011;16960;49.404;8.248;2024-03-25T03:09:45;0.80;;;0.80;;
30147;SDS011;16960;49.404;8.248;2024-03-25T03:12:11;2.00;;;1.30;;
30147;SDS011;16960;49.404;8.248;2024-03-25T03:14:38;1.10;;;1.00;;
30147;SDS011;16960;49.404;8.248;2024-03-25T03:17:04;1.20;;;1.07;;
30147;SDS011;16960;49.404;8.248;2024-03-25T03:19:32;1.50;;;1.00;;
30147;SDS011;16960;49.404;8.248;2024-03-25T03:21:58;1.43;;;0.90;;
30147;SDS011;16960;49.404;8.248;2024-03-25T03:24:25;1.07;;;0.97;;
30147;SDS011;16960;49.404;8.248;2024-03-25T03:26:51;1.07;;;0.80;;
30147;SDS011;16960;49.404;8.248;2024-03-25T03:29:18;1.53;;;1.00;;
30147;SDS011;16960;49.404;8.248;2024-03-25T03:31:43;1.10;;;1.00;;
30147;SDS011;16960;49.404;8.248;2024-03-25T03:34:10;1.67;;;1.50;;
30147;SDS011;16960;49.404;8.248;2024-03-25T03:36:38;1.20;;;1.10;;
30147;SDS011;16960;49.404;8.248;2024-03-25T03:39:05;1.80;;;1.20;;
30147;SDS011;16960;49.404;8.248;2024-03-25T03:41:33;1.43;;;1.13;;
30147;SDS011;16960;49.404;8.248;2024-03-25T03:44:00;1.57;;;1.13;;
30147;SDS011;16960;49.404;8.248;2024-03-25T03:46:26;1.10;;;0.90;;
30147;SDS011;16960;49.404;8.248;2024-03-25T03:48:53;1.17;;;1.00;;
30147;SDS011;16960;49.404;8.248;2024-03-25T03:51:19;1.83;;;1.40;;
30147;SDS011;16960;49.404;8.248;2024-03-25T03:53:48;1.47;;;1.17;;
30147;SDS011;16960;49.404;8.248;2024-03-25T03:56:13;1.10;;;1.03;;
30147;SDS011;16960;49.404;8.248;2024-03-25T03:58:41;1.73;;;1.23;;
30147;SDS011;16960;49.404;8.248;2024-03-25T04:01:13;1.77;;;1.17;;
30147;SDS011;16960;49.404;8.248;2024-03-25T04:03:41;1.50;;;1.10;;
30147;SDS011;16960;49.404;8.248;2024-03-25T04:06:07;2.13;;;1.23;;
30147;SDS011;16960;49.404;8.248;2024-03-25T04:08:36;1.10;;;1.00;;
30147;SDS011;16960;49.404;8.248;2024-03-25T04:11:04;1.10;;;0.93;;
30147;SDS011;16960;49.404;8.248;2024-03-25T04:13:32;1.80;;;1.23;;
30147;SDS011;16960;49.404;8.248;2024-03-25T04:16:00;1.53;;;1.13;;
30147;SDS011;16960;49.404;8.248;2024-03-25T04:18:29;1.40;;;1.10;;
30147;SDS011;16960;49.404;8.248;2024-03-25T04:20:55;1.10;;;1.00;;
30147;SDS011;16960;49.404;8.248;2024-03-25T04:23:23;1.30;;;1.20;;
30147;SDS011;16960;49.404;8.248;2024-03-25T04:25:49;0.80;;;0.80;;
30147;SDS011;16960;49.404;8.248;2024-03-25T04:28:17;1.10;;;0.90;;
30147;SDS011;16960;49.404;8.248;2024-03-25T04:30:45;1.07;;;0.97;;
30147;SDS011;16960;49.404;8.248;2024-03-25T04:33:17;1.80;;;1.50;;
30147;SDS011;16960;49.404;8.248;2024-03-25T04:35:44;1.27;;;1.00;;
30147;SDS011;16960;49.404;8.248;2024-03-25T04:38:11;1.83;;;1.20;;
30147;SDS011;16960;49.404;8.248;2024-03-25T04:40:37;1.00;;;0.90;;
30147;SDS011;16960;49.404;8.248;2024-03-25T04:43:03;1.13;;;1.03;;
30147;SDS011;16960;49.404;8.248;2024-03-25T04:45:30;1.43;;;1.10;;
30147;SDS011;16960;49.404;8.248;2024-03-25T04:47:57;1.13;;;1.03;;
30147;SDS011;16960;49.404;8.248;2024-03-25T04:50:23;1.47;;;1.17;;
30147;SDS011;16960;49.404;8.248;2024-03-25T04:52:49;1.20;;;1.10;;
30147;SDS011;16960;49.404;8.248;2024-03-25T04:55:15;1.10;;;1.00;;
30147;SDS011;16960;49.404;8.248;2024-03-25T04:57:41;1.30;;;1.00;;
30147;SDS011;16960;49.404;8.248;2024-03-25T05:00:07;1.83;;;1.20;;
30147;SDS011;16960;49.404;8.248;2024-03-25T05:02:36;1.23;;;1.13;;
30147;SDS011;16960;49.404;8.248;2024-03-25T05:05:03;1.33;;;1.17;;
30147;SDS011;16960;49.404;8.248;2024-03-25T05:07:29;1.33;;;1.20;;
30147;SDS011;16960;49.404;8.248;2024-03-25T05:09:55;1.37;;;1.27;;
30147;SDS011;16960;49.404;8.248;2024-03-25T05:12:21;1.20;;;1.03;;
30147;SDS011;16960;49.404;8.248;2024-03-25T05:14:47;1.63;;;1.23;;
30147;SDS011;16960;49.404;8.248;2024-03-25T05:17:13;1.47;;;1.27;;
30147;SDS011;16960;49.404;8.248;2024-03-25T05:19:40;1.10;;;1.00;;
30147;SDS011;16960;49.404;8.248;2024-03-25T05:22:06;1.27;;;1.17;;
30147;SDS011;16960;49.404;8.248;2024-03-25T05:24:32;1.10;;;1.00;;
30147;SDS011;16960;49.404;8.248;2024-03-25T05:26:58;1.43;;;1.10;;
30147;SDS011;16960;49.404;8.248;2024-03-25T05:29:24;2.60;;;1.53;;
30147;SDS011;16960;49.404;8.248;2024-03-25T05:31:57;1.10;;;1.00;;
30147;SDS011;16960;49.404;8.248;2024-03-25T05:34:23;1.43;;;1.33;;
30147;SDS011;16960;49.404;8.248;2024-03-25T05:36:51;1.40;;;1.10;;
30147;SDS011;16960;49.404;8.248;2024-03-25T05:39:17;1.40;;;1.13;;
30147;SDS011;16960;49.404;8.248;2024-03-25T05:41:43;1.47;;;1.37;;
30147;SDS011;16960;49.404;8.248;2024-03-25T05:44:09;1.27;;;1.17;;
30147;SDS011;16960;49.404;8.248;2024-03-25T05:46:35;1.23;;;1.13;;
30147;SDS011;16960;49.404;8.248;2024-03-25T05:49:02;1.20;;;1.10;;
30147;SDS011;16960;49.404;8.248;2024-03-25T05:51:28;1.27;;;1.17;;
30147;SDS011;16960;49.404;8.248;2024-03-25T05:53:55;1.63;;;1.23;;
30147;SDS011;16960;49.404;8.248;2024-03-25T05:56:21;1.50;;;1.40;;
30147;SDS011;16960;49.404;8.248;2024-03-25T05:58:47;1.63;;;1.40;;
30147;SDS011;16960;49.404;8.248;2024-03-25T06:01:13;1.30;;;1.20;;
30147;SDS011;16960;49.404;8.248;2024-03-25T06:03:40;1.53;;;1.07;;
30147;SDS011;16960;49.404;8.248;2024-03-25T06:06:06;1.30;;;1.20;;
30147;SDS011;16960;49.404;8.248;2024-03-25T06:08:32;1.30;;;1.20;;
30147;SDS011;16960;49.404;8.248;2024-03-25T06:11:01;2.27;;;1.43;;
30147;SDS011;16960;49.404;8.248;2024-03-25T06:13:27;1.17;;;1.00;;
30147;SDS011;16960;49.404;8.248;2024-03-25T06:15:53;1.23;;;1.13;;
30147;SDS011;16960;49.404;8.248;2024-03-25T06:18:19;1.37;;;1.23;;
30147;SDS011;16960;49.404;8.248;2024-03-25T06:20:45;1.50;;;1.23;;
30147;SDS011;16960;49.404;8.248;2024-03-25T06:23:20;1.53;;;1.27;;
30147;SDS011;16960;49.404;8.248;2024-03-25T06:25:47;1.30;;;1.20;;
30147;SDS011;16960;49.404;8.248;2024-03-25T06:28:15;1.20;;;1.10;;
30147;SDS011;16960;49.404;8.248;2024-03-25T06:30:41;2.00;;;1.57;;
30147;SDS011;16960;49.404;8.248;2024-03-25T06:33:25;1.33;;;1.20;;
30147;SDS011;16960;49.404;8.248;2024-03-25T06:36:10;1.43;;;1.33;;
30147;SDS011;16960;49.404;8.248;2024-03-25T06:38:36;1.23;;;1.13;;
30147;SDS011;16960;49.404;8.248;2024-03-25T06:41:02;1.10;;;1.00;;
30147;SDS011;16960;49.404;8.248;2024-03-25T06:46:25;1.33;;;1.23;;
30147;SDS011;16960;49.404;8.248;2024-03-25T06:48:51;2.00;;;1.60;;
30147;SDS011;16960;49.404;8.248;2024-03-25T06:51:17;1.53;;;1.30;;
30147;SDS011;16960;49.404;8.248;2024-03-25T06:53:43;2.23;;;1.47;;
30147;SDS011;16960;49.404;8.248;2024-03-25T06:56:09;2.30;;;2.10;;
30147;SDS011;16960;49.404;8.248;2024-03-25T06:58:35;1.50;;;1.40;;
30147;SDS011;16960;49.404;8.248;2024-03-25T07:01:05;1.87;;;1.40;;
30147;SDS011;16960;49.404;8.248;2024-03-25T07:03:32;2.47;;;1.70;;
30147;SDS011;16960;49.404;8.248;2024-03-25T07:05:59;2.67;;;1.30;;
30147;SDS011;16960;49.404;8.248;2024-03-25T07:08:25;1.73;;;1.60;;
30147;SDS011;16960;49.404;8.248;2024-03-25T07:10:51;1.20;;;1.10;;
30147;SDS011;16960;49.404;8.248;2024-03-25T07:13:17;1.73;;;1.63;;
30147;SDS011;16960;49.404;8.248;2024-03-25T07:15:44;1.50;;;1.40;;
30147;SDS011;16960;49.404;8.248;2024-03-25T07:18:11;1.63;;;1.47;;
30147;SDS011;16960;49.404;8.248;2024-03-25T07:20:38;2.50;;;1.47;;
30147;SDS011;16960;49.404;8.248;2024-03-25T07:23:04;2.50;;;1.60;;
30147;SDS011;16960;49.404;8.248;2024-03-25T07:25:30;1.80;;;1.70;;
30147;SDS011;16960;49.404;8.248;2024-03-25T07:27:56;1.87;;;1.47;;
30147;SDS011;16960;49.404;8.248;2024-03-25T07:30:22;1.37;;;1.20;;
30147;SDS011;16960;49.404;8.248;2024-03-25T07:32:49;2.17;;;1.30;;
30147;SDS011;16960;49.404;8.248;2024-03-25T07:35:16;1.50;;;1.40;;
30147;SDS011;16960;49.404;8.248;2024-03-25T07:37:42;1.73;;;1.27;;
30147;SDS011;16960;49.404;8.248;2024-03-25T07:40:08;1.20;;;0.90;;
30147;SDS011;16960;49.404;8.248;2024-03-25T07:42:35;3.07;;;1.47;;
30147;SDS011;16960;49.404;8.248;2024-03-25T07:45:01;2.67;;;1.77;;
30147;SDS011;16960;49.404;8.248;2024-03-25T07:47:27;2.10;;;1.20;;
30147;SDS011;16960;49.404;8.248;2024-03-25T07:49:53;3.00;;;1.50;;
30147;SDS011;16960;49.404;8.248;2024-03-25T07:52:20;2.33;;;1.87;;
30147;SDS011;16960;49.404;8.248;2024-03-25T07:54:46;2.00;;;1.70;;
30147;SDS011;16960;49.404;8.248;2024-03-25T07:57:12;2.27;;;1.50;;
30147;SDS011;16960;49.404;8.248;2024-03-25T07:59:38;1.70;;;1.60;;
30147;SDS011;16960;49.404;8.248;2024-03-25T08:02:04;2.33;;;1.70;;
30147;SDS011;16960;49.404;8.248;2024-03-25T08:04:30;1.60;;;1.47;;
30147;SDS011;16960;49.404;8.248;2024-03-25T08:06:56;2.83;;;1.80;;
30147;SDS011;16960;49.404;8.248;2024-03-25T08:09:24;1.90;;;1.40;;
30147;SDS011;16960;49.404;8.248;2024-03-25T08:11:50;4.43;;;1.60;;
30147;SDS011;16960;49.404;8.248;2024-03-25T08:14:16;2.40;;;1.87;;
30147;SDS011;16960;49.404;8.248;2024-03-25T08:16:41;1.67;;;1.50;;
30147;SDS011;16960;49.404;8.248;2024-03-25T08:19:07;2.53;;;1.57;;
30147;SDS011;16960;49.404;8.248;2024-03-25T08:21:33;3.03;;;1.73;;
30147;SDS011;16960;49.404;8.248;2024-03-25T08:23:59;3.43;;;1.60;;
30147;SDS011;16960;49.404;8.248;2024-03-25T08:26:27;1.53;;;1.23;;
30147;SDS011;16960;49.404;8.248;2024-03-25T08:28:53;1.73;;;1.47;;
30147;SDS011;16960;49.404;8.248;2024-03-25T08:31:19;2.30;;;1.60;;
30147;SDS011;16960;49.404;8.248;2024-03-25T08:33:45;2.67;;;2.00;;
30147;SDS011;16960;49.404;8.248;2024-03-25T08:36:11;2.30;;;1.50;;
30147;SDS011;16960;49.404;8.248;2024-03-25T08:38:37;1.50;;;1.40;;
30147;SDS011;16960;49.404;8.248;2024-03-25T08:41:03;1.60;;;1.20;;
30147;SDS011;16960;49.404;8.248;2024-03-25T08:43:30;2.80;;;1.93;;
30147;SDS011;16960;49.404;8.248;2024-03-25T08:45:56;2.10;;;1.90;;
30147;SDS011;16960;49.404;8.248;2024-03-25T08:48:22;2.50;;;2.20;;
30147;SDS011;16960;49.404;8.248;2024-03-25T08:50:48;3.23;;;1.90;;
30147;SDS011;16960;49.404;8.248;2024-03-25T08:53:14;2.80;;;2.07;;
30147;SDS011;16960;49.404;8.248;2024-03-25T08:55:43;2.50;;;2.10;;
30147;SDS011;16960;49.404;8.248;2024-03-25T08:58:10;4.40;;;2.30;;
30147;SDS011;16960;49.404;8.248;2024-03-25T09:00:38;3.43;;;1.73;;
30147;SDS011;16960;49.404;8.248;2024-03-25T09:03:04;2.10;;;1.40;;
30147;SDS011;16960;49.404;8.248;2024-03-25T09:05:30;2.97;;;2.00;;
30147;SDS011;16960;49.404;8.248;2024-03-25T09:07:56;1.80;;;1.40;;
30147;SDS011;16960;49.404;8.248;2024-03-25T09:10:22;2.33;;;1.90;;
30147;SDS011;16960;49.404;8.248;2024-03-25T09:13:06;2.17;;;1.50;;
30147;SDS011;16960;49.404;8.248;2024-03-25T09:15:32;3.57;;;2.13;;
30147;SDS011;16960;49.404;8.248;2024-03-25T09:18:00;2.33;;;1.80;;
30147;SDS011;16960;49.404;8.248;2024-03-25T09:20:26;1.60;;;1.50;;
30147;SDS011;16960;49.404;8.248;2024-03-25T09:22:52;3.33;;;1.87;;
30147;SDS011;16960;49.404;8.248;2024-03-25T09:25:18;1.90;;;1.53;;
30147;SDS011;16960;49.404;8.248;2024-03-25T09:27:45;3.70;;;1.80;;
30147;SDS011;16960;49.404;8.248;2024-03-25T09:30:11;2.90;;;1.90;;
30147;SDS011;16960;49.404;8.248;2024-03-25T09:32:38;1.60;;;1.50;;
30147;SDS011;16960;49.404;8.248;2024-03-25T09:35:05;2.40;;;1.93;;
30147;SDS011;16960;49.404;8.248;2024-03-25T09:37:32;2.70;;;1.50;;
30147;SDS011;16960;49.404;8.248;2024-03-25T09:39:58;3.03;;;1.83;;
30147;SDS011;16960;49.404;8.248;2024-03-25T09:42:25;3.20;;;1.90;;
30147;SDS011;16960;49.404;8.248;2024-03-25T09:44:53;3.47;;;1.87;;
30147;SDS011;16960;49.404;8.248;2024-03-25T09:47:20;2.27;;;1.67;;
30147;SDS011;16960;49.404;8.248;2024-03-25T09:49:46;1.47;;;1.37;;
30147;SDS011;16960;49.404;8.248;2024-03-25T09:52:15;1.50;;;1.40;;
30147;SDS011;16960;49.404;8.248;2024-03-25T09:54:41;3.07;;;1.50;;
30147;SDS011;16960;49.404;8.248;2024-03-25T09:57:07;3.37;;;1.50;;
30147;SDS011;16960;49.404;8.248;2024-03-25T09:59:33;2.20;;;1.70;;
30147;SDS011;16960;49.404;8.248;2024-03-25T10:01:59;2.93;;;1.40;;
30147;SDS011;16960;49.404;8.248;2024-03-25T10:04:27;2.07;;;1.70;;
30147;SDS011;16960;49.404;8.248;2024-03-25T10:06:53;2.30;;;1.70;;
30147;SDS011;16960;49.404;8.248;2024-03-25T10:09:20;4.77;;;1.63;;
30147;SDS011;16960;49.404;8.248;2024-03-25T10:11:47;2.80;;;1.77;;
30147;SDS011;16960;49.404;8.248;2024-03-25T10:14:14;3.30;;;1.80;;
30147;SDS011;16960;49.404;8.248;2024-03-25T10:16:40;2.27;;;1.70;;
30147;SDS011;16960;49.404;8.248;2024-03-25T10:19:06;2.20;;;1.60;;
30147;SDS011;16960;49.404;8.248;2024-03-25T10:21:33;2.93;;;2.30;;
30147;SDS011;16960;49.404;8.248;2024-03-25T10:23:59;2.70;;;1.90;;
30147;SDS011;16960;49.404;8.248;2024-03-25T10:26:27;2.30;;;1.50;;
30147;SDS011;16960;49.404;8.248;2024-03-25T10:29:00;1.47;;;1.37;;
30147;SDS011;16960;49.404;8.248;2024-03-25T10:31:28;2.10;;;1.27;;
30147;SDS011;16960;49.404;8.248;2024-03-25T10:33:54;2.40;;;1.67;;
30147;SDS011;16960;49.404;8.248;2024-03-25T10:36:20;2.87;;;1.80;;
30147;SDS011;16960;49.404;8.248;2024-03-25T10:38:55;1.60;;;1.50;;
30147;SDS011;16960;49.404;8.248;2024-03-25T10:41:22;2.43;;;1.50;;
30147;SDS011;16960;49.404;8.248;2024-03-25T10:43:50;2.03;;;1.27;;
30147;SDS011;16960;49.404;8.248;2024-03-25T10:46:19;2.70;;;1.53;;
30147;SDS011;16960;49.404;8.248;2024-03-25T10:48:48;2.33;;;1.67;;
30147;SDS011;16960;49.404;8.248;2024-03-25T10:51:19;3.53;;;1.67;;
30147;SDS011;16960;49.404;8.248;2024-03-25T10:53:47;5.27;;;1.40;;
30147;SDS011;16960;49.404;8.248;2024-03-25T10:56:17;4.57;;;1.63;;
30147;SDS011;16960;49.404;8.248;2024-03-25T10:58:46;1.80;;;1.50;;
30147;SDS011;16960;49.404;8.248;2024-03-25T11:01:14;4.80;;;1.80;;
30147;SDS011;16960;49.404;8.248;2024-03-25T11:03:43;4.10;;;1.67;;
30147;SDS011;16960;49.404;8.248;2024-03-25T11:06:10;3.20;;;1.50;;
30147;SDS011;16960;49.404;8.248;2024-03-25T11:08:36;3.53;;;1.83;;
30147;SDS011;16960;49.404;8.248;2024-03-25T11:11:02;5.13;;;1.80;;
30147;SDS011;16960;49.404;8.248;2024-03-25T11:13:28;2.13;;;1.50;;
30147;SDS011;16960;49.404;8.248;2024-03-25T11:15:54;2.10;;;1.10;;
30147;SDS011;16960;49.404;8.248;2024-03-25T11:18:23;1.20;;;1.10;;
30147;SDS011;16960;49.404;8.248;2024-03-25T11:20:59;2.10;;;1.20;;
30147;SDS011;16960;49.404;8.248;2024-03-25T11:23:26;2.47;;;1.50;;
30147;SDS011;16960;49.404;8.248;2024-03-25T11:25:54;3.27;;;1.40;;
30147;SDS011;16960;49.404;8.248;2024-03-25T11:28:28;1.57;;;1.20;;
30147;SDS011;16960;49.404;8.248;2024-03-25T11:30:55;1.30;;;1.10;;
30147;SDS011;16960;49.404;8.248;2024-03-25T11:33:22;2.83;;;1.50;;
30147;SDS011;16960;49.404;8.248;2024-03-25T11:35:49;1.33;;;1.10;;
30147;SDS011;16960;49.404;8.248;2024-03-25T11:38:15;2.90;;;1.50;;
30147;SDS011;16960;49.404;8.248;2024-03-25T11:40:41;3.50;;;1.30;;
30147;SDS011;16960;49.404;8.248;2024-03-25T11:43:09;3.20;;;1.40;;
30147;SDS011;16960;49.404;8.248;2024-03-25T11:45:35;2.70;;;1.40;;
30147;SDS011;16960;49.404;8.248;2024-03-25T11:48:02;4.13;;;1.70;;
30147;SDS011;16960;49.404;8.248;2024-03-25T11:50:30;5.00;;;1.93;;
30147;SDS011;16960;49.404;8.248;2024-03-25T11:52:56;2.20;;;1.70;;
30147;SDS011;16960;49.404;8.248;2024-03-25T11:55:22;2.40;;;1.23;;
30147;SDS011;16960;49.404;8.248;2024-03-25T11:57:54;3.83;;;1.20;;
30147;SDS011;16960;49.404;8.248;2024-03-25T12:00:20;1.93;;;1.20;;
30147;SDS011;16960;49.404;8.248;2024-03-25T12:02:46;1.20;;;1.07;;
30147;SDS011;16960;49.404;8.248;2024-03-25T12:05:13;4.53;;;1.60;;
30147;SDS011;16960;49.404;8.248;2024-03-25T12:07:40;1.73;;;1.27;;
30147;SDS011;16960;49.404;8.248;2024-03-25T12:10:06;2.10;;;1.20;;
30147;SDS011;16960;49.404;8.248;2024-03-25T12:12:51;2.40;;;1.23;;
30147;SDS011;16960;49.404;8.248;2024-03-25T12:15:17;2.80;;;1.50;;
30147;SDS011;16960;49.404;8.248;2024-03-25T12:17:44;2.70;;;1.20;;
30147;SDS011;16960;49.404;8.248;2024-03-25T12:20:10;3.03;;;1.20;;
30147;SDS011;16960;49.404;8.248;2024-03-25T12:22:36;2.43;;;1.43;;
30147;SDS011;16960;49.404;8.248;2024-03-25T12:25:04;1.90;;;1.20;;
30147;SDS011;16960;49.404;8.248;2024-03-25T12:27:32;3.63;;;1.47;;
30147;SDS011;16960;49.404;8.248;2024-03-25T12:29:59;3.40;;;1.30;;
30147;SDS011;16960;49.404;8.248;2024-03-25T12:32:35;1.93;;;1.30;;
30147;SDS011;16960;49.404;8.248;2024-03-25T12:35:02;3.90;;;1.37;;
30147;SDS011;16960;49.404;8.248;2024-03-25T12:37:29;2.43;;;1.40;;
30147;SDS011;16960;49.404;8.248;2024-03-25T12:39:56;1.87;;;1.30;;
30147;SDS011;16960;49.404;8.248;2024-03-25T12:42:25;1.50;;;1.40;;
30147;SDS011;16960;49.404;8.248;2024-03-25T12:44:52;1.77;;;1.20;;
30147;SDS011;16960;49.404;8.248;2024-03-25T12:47:18;1.63;;;1.20;;
30147;SDS011;16960;49.404;8.248;2024-03-25T12:49:44;9.20;;;2.00;;
30147;SDS011;16960;49.404;8.248;2024-03-25T12:52:10;1.73;;;1.00;;
30147;SDS011;16960;49.404;8.248;2024-03-25T12:54:36;2.03;;;1.63;;
30147;SDS011;16960;49.404;8.248;2024-03-25T12:57:03;1.60;;;1.10;;
30147;SDS011;16960;49.404;8.248;2024-03-25T12:59:30;2.80;;;1.20;;
30147;SDS011;16960;49.404;8.248;2024-03-25T13:01:56;1.50;;;1.30;;
30147;SDS011;16960;49.404;8.248;2024-03-25T13:04:22;3.80;;;1.70;;
30147;SDS011;16960;49.404;8.248;2024-03-25T13:06:48;2.50;;;1.30;;
30147;SDS011;16960;49.404;8.248;2024-03-25T13:09:14;1.90;;;1.20;;
30147;SDS011;16960;49.404;8.248;2024-03-25T13:11:40;2.33;;;1.23;;
30147;SDS011;16960;49.404;8.248;2024-03-25T13:14:06;1.50;;;1.30;;
30147;SDS011;16960;49.404;8.248;2024-03-25T13:16:33;1.13;;;1.00;;
30147;SDS011;16960;49.404;8.248;2024-03-25T13:19:00;2.30;;;1.17;;
30147;SDS011;16960;49.404;8.248;2024-03-25T13:21:26;2.10;;;1.10;;
30147;SDS011;16960;49.404;8.248;2024-03-25T13:23:52;2.57;;;1.60;;
30147;SDS011;16960;49.404;8.248;2024-03-25T13:26:18;2.57;;;1.33;;
30147;SDS011;16960;49.404;8.248;2024-03-25T13:28:44;3.50;;;1.40;;
30147;SDS011;16960;49.404;8.248;2024-03-25T13:31:10;2.00;;;1.27;;
30147;SDS011;16960;49.404;8.248;2024-03-25T13:33:37;2.00;;;1.23;;
30147;SDS011;16960;49.404;8.248;2024-03-25T13:36:04;3.80;;;1.30;;
30147;SDS011;16960;49.404;8.248;2024-03-25T13:38:31;2.63;;;1.23;;
30147;SDS011;16960;49.404;8.248;2024-03-25T13:40:57;2.10;;;1.20;;
30147;SDS011;16960;49.404;8.248;2024-03-25T13:43:24;2.73;;;1.27;;
30147;SDS011;16960;49.404;8.248;2024-03-25T13:45:50;2.67;;;1.20;;
30147;SDS011;16960;49.404;8.248;2024-03-25T13:48:16;2.90;;;1.50;;
30147;SDS011;16960;49.404;8.248;2024-03-25T13:50:43;1.17;;;1.07;;
30147;SDS011;16960;49.404;8.248;2024-03-25T13:53:09;1.63;;;1.30;;
30147;SDS011;16960;49.404;8.248;2024-03-25T13:55:35;2.30;;;1.20;;
30147;SDS011;16960;49.404;8.248;2024-03-25T13:58:01;1.47;;;1.30;;
30147;SDS011;16960;49.404;8.248;2024-03-25T14:00:28;1.33;;;0.90;;
30147;SDS011;16960;49.404;8.248;2024-03-25T14:02:54;1.40;;;1.00;;
30147;SDS011;16960;49.404;8.248;2024-03-25T14:05:20;3.13;;;1.40;;
30147;SDS011;16960;49.404;8.248;2024-03-25T14:07:48;2.23;;;1.10;;
30147;SDS011;16960;49.404;8.248;2024-03-25T14:10:14;2.80;;;1.43;;
30147;SDS011;16960;49.404;8.248;2024-03-25T14:12:40;1.97;;;1.07;;
30147;SDS011;16960;49.404;8.248;2024-03-25T14:15:06;2.30;;;1.23;;
30147;SDS011;16960;49.404;8.248;2024-03-25T14:17:32;1.53;;;1.03;;
30147;SDS011;16960;49.404;8.248;2024-03-25T14:19:59;2.73;;;1.50;;
30147;SDS011;16960;49.404;8.248;2024-03-25T14:22:25;1.90;;;1.07;;
30147;SDS011;16960;49.404;8.248;2024-03-25T14:24:52;1.37;;;0.83;;
30147;SDS011;16960;49.404;8.248;2024-03-25T14:27:18;0.93;;;0.80;;
30147;SDS011;16960;49.404;8.248;2024-03-25T14:29:45;3.23;;;1.37;;
30147;SDS011;16960;49.404;8.248;2024-03-25T14:32:11;3.00;;;1.10;;
30147;SDS011;16960;49.404;8.248;2024-03-25T14:34:37;2.13;;;1.07;;
30147;SDS011;16960;49.404;8.248;2024-03-25T14:37:03;1.27;;;0.83;;
30147;SDS011;16960;49.404;8.248;2024-03-25T14:39:29;1.37;;;1.07;;
30147;SDS011;16960;49.404;8.248;2024-03-25T14:41:56;2.20;;;1.00;;
30147;SDS011;16960;49.404;8.248;2024-03-25T14:44:22;3.13;;;1.20;;
30147;SDS011;16960;49.404;8.248;2024-03-25T14:46:48;3.27;;;1.10;;
30147;SDS011;16960;49.404;8.248;2024-03-25T14:49:14;2.67;;;1.33;;